createdAt,value
2023-05-10T00:01:20.211Z,76.08
2023-05-10T00:06:31.494Z,77.10
2023-05-10T00:11:35.992Z,76.40
2023-05-10T00:16:41.977Z,76.77
2023-05-10T00:21:47.866Z,76.26
2023-05-10T00:26:51.990Z,76.08
2023-05-10T00:31:56.809Z,76.35
2023-05-10T00:37:03.112Z,76.03
2023-05-10T00:42:07.247Z,75.19
2023-05-10T00:47:13.052Z,75.59
2023-05-10T00:52:18.916Z,75.47
2023-05-10T00:57:23.621Z,76.01
2023-05-10T01:02:28.566Z,76.08
2023-05-10T01:07:36.219Z,75.60
2023-05-10T01:12:43.892Z,75.67
2023-05-10T01:17:51.101Z,76.58
2023-05-10T01:23:22.856Z,76.44
2023-05-10T01:29:08.959Z,77.31
2023-05-10T01:34:21.967Z,77.46
2023-05-10T01:39:31.549Z,78.32
2023-05-10T01:44:40.408Z,78.50
2023-05-10T01:49:51.233Z,77.55
2023-05-10T01:55:02.865Z,78.96
2023-05-10T02:00:11.879Z,78.41
2023-05-10T02:05:23.061Z,79.26
2023-05-10T02:10:27.869Z,78.57
2023-05-10T02:15:33.424Z,77.93
2023-05-10T02:20:41.212Z,77.46
2023-05-10T02:25:47.880Z,78.35
2023-05-10T02:30:52.637Z,77.86
2023-05-10T02:36:00.646Z,78.23
2023-05-10T02:41:07.475Z,78.99
2023-05-10T02:46:11.901Z,78.35
2023-05-10T02:51:22.082Z,78.80
2023-05-10T02:56:31.464Z,78.55
2023-05-10T03:01:36.286Z,79.12
2023-05-10T03:06:42.510Z,78.75
2023-05-10T03:11:57.283Z,78.58
2023-05-10T03:17:08.744Z,78.05
2023-05-10T03:22:21.080Z,78.56
2023-05-10T03:27:26.492Z,78.64
2023-05-10T03:32:34.055Z,78.97
2023-05-10T03:37:40.768Z,80.07
2023-05-10T03:42:44.900Z,79.63
2023-05-10T03:47:49.240Z,80.49
2023-05-10T03:52:56.352Z,80.81
2023-05-10T03:58:00.590Z,81.03
2023-05-10T04:03:04.925Z,81.70
2023-05-10T04:08:10.459Z,82.14
2023-05-10T04:13:14.965Z,82.06
2023-05-10T04:18:19.456Z,83.08
2023-05-10T04:23:24.970Z,82.71
2023-05-10T04:28:29.200Z,83.51
2023-05-10T04:33:34.635Z,83.96
2023-05-10T04:38:40.593Z,85.15
2023-05-10T04:43:44.926Z,85.43
2023-05-10T04:48:49.892Z,85.37
2023-05-10T04:54:05.424Z,84.72
2023-05-10T04:59:10.772Z,85.22
2023-05-10T05:04:15.702Z,87.07
2023-05-10T05:09:20.991Z,87.35
2023-05-10T05:14:26.342Z,87.28
2023-05-10T05:19:30.583Z,87.55
2023-05-10T05:24:39.932Z,84.97
2023-05-10T05:29:44.000Z,84.37
2023-05-10T05:34:48.245Z,81.28
2023-05-10T05:39:55.689Z,80.10
2023-05-10T05:45:00.930Z,76.28
2023-05-10T05:50:05.352Z,74.84
2023-05-10T05:55:12.223Z,74.19
2023-05-10T06:00:17.314Z,75.10
2023-05-10T06:05:23.815Z,71.94
2023-05-10T06:10:29.921Z,74.06
2023-05-10T06:15:35.850Z,72.74
2023-05-10T06:20:41.477Z,73.84
2023-05-10T06:25:47.241Z,71.16
2023-05-10T06:30:51.782Z,68.72
2023-05-10T06:35:57.022Z,69.52
2023-05-10T06:41:03.148Z,67.09
2023-05-10T06:46:07.890Z,66.40
2023-05-10T06:51:13.253Z,67.05
2023-05-10T06:56:22.786Z,66.34
2023-05-10T07:01:31.161Z,64.89
2023-05-10T07:06:36.497Z,65.10
2023-05-10T07:11:54.557Z,63.45
2023-05-10T07:17:13.398Z,61.37
2023-05-10T07:22:23.219Z,64.31
2023-05-10T07:27:34.462Z,62.63
2023-05-10T07:32:43.320Z,59.43
2023-05-10T07:37:59.353Z,58.31
2023-05-10T07:43:07.945Z,58.48
2023-05-10T07:48:15.274Z,57.16
2023-05-10T07:53:21.396Z,61.60
2023-05-10T07:58:30.525Z,62.61
2023-05-10T08:03:43.540Z,62.44
2023-05-10T08:08:52.054Z,61.31
2023-05-10T08:14:02.234Z,59.75
2023-05-10T08:19:08.292Z,55.62
2023-05-10T08:24:17.440Z,53.63
2023-05-10T08:29:28.541Z,53.39
2023-05-10T08:34:36.727Z,52.63
2023-05-10T08:39:42.603Z,52.78
2023-05-10T08:44:55.682Z,51.59
2023-05-10T08:50:01.461Z,49.98
2023-05-10T08:55:06.737Z,50.16
2023-05-10T09:00:19.289Z,51.42
2023-05-10T09:05:25.042Z,51.92
2023-05-10T09:10:30.845Z,50.22
2023-05-10T09:15:38.114Z,48.77
2023-05-10T09:20:45.416Z,50.39
2023-05-10T09:25:51.177Z,52.06
2023-05-10T09:31:06.512Z,49.39
2023-05-10T09:36:18.689Z,49.17
2023-05-10T09:41:26.247Z,47.57
2023-05-10T09:46:33.065Z,48.28
2023-05-10T09:51:39.107Z,48.44
2023-05-10T09:56:43.675Z,47.32
2023-05-10T10:01:56.482Z,48.90
2023-05-10T10:07:07.381Z,48.39
2023-05-10T10:12:14.026Z,46.66
2023-05-10T10:17:25.152Z,46.97
2023-05-10T10:22:29.835Z,47.09
2023-05-10T10:27:45.844Z,47.66
2023-05-10T10:33:16.607Z,45.63
2023-05-10T10:38:24.730Z,48.18
2023-05-10T10:43:30.765Z,47.35
2023-05-10T10:48:36.577Z,45.98
2023-05-10T10:53:42.392Z,45.32
2023-05-10T10:58:54.826Z,48.91
2023-05-10T11:04:29.196Z,48.44
2023-05-10T11:09:42.707Z,48.63
2023-05-10T11:14:53.931Z,45.85
2023-05-10T11:20:20.565Z,46.45
2023-05-10T11:25:31.407Z,45.23
2023-05-10T11:31:04.264Z,47.85
2023-05-10T11:36:15.794Z,47.34
2023-05-10T11:41:33.394Z,44.54
2023-05-10T11:46:47.666Z,47.98
2023-05-10T11:52:09.248Z,45.25
2023-05-10T11:57:14.456Z,44.81
2023-05-10T12:02:20.152Z,46.49
2023-05-10T12:07:30.004Z,46.49
2023-05-10T12:12:43.995Z,47.24
2023-05-10T12:17:49.243Z,47.01
2023-05-10T12:23:00.489Z,46.81
2023-05-10T12:28:08.657Z,46.14
2023-05-10T12:33:18.217Z,45.30
2023-05-10T12:38:32.890Z,46.55
2023-05-10T12:43:41.148Z,47.73
2023-05-10T12:48:47.437Z,47.04
2023-05-10T12:53:53.471Z,46.22
2023-05-10T12:58:57.908Z,46.60
2023-05-10T13:04:02.952Z,49.34
2023-05-10T13:10:05.950Z,49.85
2023-05-10T13:22:09.837Z,48.02
2023-05-10T13:28:09.670Z,48.38
2023-05-10T13:33:40.756Z,48.24
2023-05-10T13:38:47.944Z,49.13
2023-05-10T13:44:28.907Z,48.21
2023-05-10T13:49:57.080Z,47.73
2023-05-10T13:56:15.839Z,49.07
2023-05-10T14:15:47.245Z,48.63
2023-05-10T14:20:52.169Z,49.94
2023-05-10T14:25:55.741Z,49.76
2023-05-10T14:31:00.005Z,49.37
2023-05-10T14:36:05.700Z,52.33
2023-05-10T14:41:11.729Z,51.40
2023-05-10T14:46:15.692Z,51.13
2023-05-10T14:51:22.859Z,51.62
2023-05-10T14:56:26.942Z,52.97
2023-05-10T15:01:30.707Z,52.18
2023-05-10T15:06:37.009Z,52.95
2023-05-10T15:11:40.507Z,53.79
2023-05-10T15:16:43.932Z,53.30
2023-05-10T15:21:49.144Z,53.57
2023-05-10T15:26:52.973Z,54.92
2023-05-10T15:31:56.420Z,54.19
2023-05-10T15:37:01.414Z,53.57
2023-05-10T15:42:05.252Z,53.77
2023-05-10T15:47:08.837Z,53.26
2023-05-10T15:52:14.005Z,53.77
2023-05-10T15:57:17.925Z,54.20
2023-05-10T16:02:22.698Z,56.66
2023-05-10T16:07:27.935Z,57.27
2023-05-10T16:12:32.162Z,57.58
2023-05-10T16:17:37.462Z,58.08
2023-05-10T16:22:44.418Z,58.17
2023-05-10T16:27:48.015Z,59.31
2023-05-10T16:32:51.573Z,59.89
2023-05-10T16:37:56.742Z,60.10
2023-05-10T16:43:00.178Z,59.90
2023-05-10T16:48:03.921Z,59.92
2023-05-10T16:53:08.868Z,60.59
2023-05-10T16:58:12.810Z,61.08
2023-05-10T17:03:16.947Z,61.57
2023-05-10T17:08:23.220Z,62.30
2023-05-10T17:13:26.666Z,62.41
2023-05-10T17:18:30.227Z,63.05
2023-05-10T17:23:35.092Z,64.36
2023-05-10T17:28:40.682Z,64.90
2023-05-10T17:33:44.097Z,65.08
2023-05-10T17:38:49.602Z,65.65
2023-05-10T17:43:54.881Z,66.40
2023-05-10T17:48:58.821Z,66.53
2023-05-10T17:54:03.783Z,66.46
2023-05-10T17:59:07.591Z,67.58
2023-05-10T18:04:11.297Z,67.49
2023-05-10T18:09:17.959Z,68.11
2023-05-10T18:14:35.977Z,68.39
2023-05-10T18:19:43.146Z,68.77
2023-05-10T18:25:03.398Z,69.74
2023-05-10T18:30:10.329Z,69.57
2023-05-10T18:35:14.094Z,70.18
2023-05-10T18:40:19.699Z,70.42
2023-05-10T18:45:24.044Z,70.79
2023-05-10T18:50:27.588Z,71.07
2023-05-10T18:55:32.525Z,71.99
2023-05-10T19:00:35.989Z,71.98
2023-05-10T19:05:39.459Z,72.69
2023-05-10T19:10:44.414Z,72.67
2023-05-10T19:15:48.597Z,72.84
2023-05-10T19:20:56.486Z,73.48
2023-05-10T19:26:01.682Z,73.18
2023-05-10T19:31:06.302Z,73.75
2023-05-10T19:36:10.118Z,73.96
2023-05-10T19:41:15.184Z,74.74
2023-05-10T19:46:20.134Z,75.06
2023-05-10T19:51:23.875Z,75.03
2023-05-10T19:56:29.686Z,75.24
2023-05-10T20:01:33.186Z,75.35
2023-05-10T20:06:36.746Z,75.03
2023-05-10T20:11:41.879Z,75.12
2023-05-10T20:16:45.855Z,75.48
2023-05-10T20:21:49.414Z,75.61
2023-05-10T20:26:54.657Z,75.95
2023-05-10T20:31:58.241Z,75.29
2023-05-10T20:37:02.042Z,75.34
2023-05-10T20:42:07.980Z,77.00
2023-05-10T20:47:11.647Z,77.44
2023-05-10T20:52:15.596Z,77.30
2023-05-10T20:57:21.176Z,76.49
2023-05-10T21:02:25.061Z,76.56
2023-05-10T21:07:28.508Z,77.74
2023-05-10T21:12:33.447Z,77.68
2023-05-10T21:17:37.092Z,77.36
2023-05-10T21:22:40.496Z,75.53
2023-05-10T21:27:46.008Z,75.39
2023-05-10T21:32:49.495Z,76.01
2023-05-10T21:37:53.017Z,75.49
2023-05-10T21:42:57.984Z,75.27
2023-05-10T21:48:01.789Z,74.07
2023-05-10T21:53:05.668Z,75.33
2023-05-10T21:58:11.052Z,74.60
2023-05-10T22:03:14.904Z,74.93
2023-05-10T22:08:18.491Z,74.25
2023-05-10T22:13:23.318Z,73.40
2023-05-10T22:18:26.887Z,74.03
2023-05-10T22:23:30.355Z,73.64
2023-05-10T22:28:35.214Z,73.85
2023-05-10T22:33:38.733Z,73.89
2023-05-10T22:38:43.492Z,73.65
2023-05-10T22:43:48.673Z,74.44
2023-05-10T22:48:52.537Z,73.37
2023-05-10T22:53:56.014Z,72.67
2023-05-10T22:59:01.282Z,73.58
2023-05-10T23:04:05.056Z,73.12
2023-05-10T23:09:09.078Z,72.33
2023-05-10T23:14:14.302Z,73.21
2023-05-10T23:19:17.759Z,73.63
2023-05-10T23:24:21.237Z,73.65
2023-05-10T23:29:26.744Z,72.87
2023-05-10T23:34:30.181Z,72.17
2023-05-10T23:39:34.051Z,71.51
2023-05-10T23:44:38.867Z,72.41
2023-05-10T23:49:43.148Z,72.67
2023-05-10T23:54:46.905Z,72.97
2023-05-10T23:59:51.873Z,72.44
